Terminal Aerodrome Forecast
Issued by NWS

Home | Current Version | Previous Version | Text Only | Print | Product List | Glossary On
Versions: 1 2 3 4 5 6 7 8 9 10 11 12 13 14 15 16 17 18 19 20 21 22 23
000
FTUS41 KBOX 190538
TAFFMH
TAF
KFMH 190538Z 1906/2006 00000KT P6SM SKC
     FM191400 18010KT P6SM FEW200
     FM191900 19013G20KT P6SM SCT030
     FM200000 19013KT 6SM -SHRA OVC035
     FM200300 21013KT 3SM -SHRA OVC015
     FM200400 21013KT 1 1/2SM -SHRA OVC015=

USA.gov is the U.S. government's official web portal to all federal, state and local government web resources and services.